sensor_id;sensor_type;location;lat;lon;timestamp;pressure;altitude;pressure_sealevel;temperature;humidity
42411;BME280;28056;51.112;0.984;2023-03-01T00:01:32;102259.13;;;5.70;52.14
42411;BME280;28056;51.112;0.984;2023-03-01T00:03:59;102258.87;;;5.78;52.76
42411;BME280;28056;51.112;0.984;2023-03-01T00:06:27;102259.62;;;5.82;51.86
42411;BME280;28056;51.112;0.984;2023-03-01T00:08:54;102258.52;;;5.86;52.21
42411;BME280;28056;51.112;0.984;2023-03-01T00:11:23;102255.04;;;5.92;52.69
42411;BME280;28056;51.112;0.984;2023-03-01T00:13:53;102254.28;;;6.03;53.32
42411;BME280;28056;51.112;0.984;2023-03-01T00:16:23;102252.61;;;6.11;53.76
42411;BME280;28056;51.112;0.984;2023-03-01T00:18:51;102252.29;;;6.20;54.30
42411;BME280;28056;51.112;0.984;2023-03-01T00:21:20;102251.70;;;6.26;54.29
42411;BME280;28056;51.112;0.984;2023-03-01T00:23:48;102249.16;;;6.23;53.56
42411;BME280;28056;51.112;0.984;2023-03-01T00:26:17;102247.06;;;6.27;54.48
42411;BME280;28056;51.112;0.984;2023-03-01T00:28:44;102250.51;;;6.14;54.79
42411;BME280;28056;51.112;0.984;2023-03-01T00:31:14;102251.14;;;6.37;54.21
42411;BME280;28056;51.112;0.984;2023-03-01T00:33:43;102249.10;;;6.40;53.84
42411;BME280;28056;51.112;0.984;2023-03-01T00:36:13;102250.35;;;6.42;54.34
42411;BME280;28056;51.112;0.984;2023-03-01T00:38:42;102250.09;;;6.40;53.58
42411;BME280;28056;51.112;0.984;2023-03-01T00:41:13;102249.93;;;6.34;52.44
42411;BME280;28056;51.112;0.984;2023-03-01T00:43:41;102248.80;;;6.42;52.69
42411;BME280;28056;51.112;0.984;2023-03-01T00:46:12;102244.17;;;6.50;53.70
42411;BME280;28056;51.112;0.984;2023-03-01T00:48:40;102245.80;;;6.23;52.00
42411;BME280;28056;51.112;0.984;2023-03-01T00:51:10;102247.77;;;5.97;52.70
42411;BME280;28056;51.112;0.984;2023-03-01T00:53:38;102246.29;;;5.97;52.22
42411;BME280;28056;51.112;0.984;2023-03-01T00:56:07;102244.25;;;6.35;52.80
42411;BME280;28056;51.112;0.984;2023-03-01T00:58:36;102241.51;;;6.39;53.41
42411;BME280;28056;51.112;0.984;2023-03-01T01:04:47;102244.44;;;6.75;53.23
42411;BME280;28056;51.112;0.984;2023-03-01T01:07:15;102244.38;;;6.75;52.57
42411;BME280;28056;51.112;0.984;2023-03-01T01:09:43;102245.78;;;6.59;52.74
42411;BME280;28056;51.112;0.984;2023-03-01T01:12:10;102243.94;;;6.79;52.92
42411;BME280;28056;51.112;0.984;2023-03-01T01:14:38;102244.18;;;6.68;51.81
42411;BME280;28056;51.112;0.984;2023-03-01T01:17:05;102240.61;;;6.63;52.29
42411;BME280;28056;51.112;0.984;2023-03-01T01:19:33;102242.89;;;6.66;53.20
42411;BME280;28056;51.112;0.984;2023-03-01T01:22:00;102241.17;;;6.60;53.02
42411;BME280;28056;51.112;0.984;2023-03-01T01:24:28;102238.91;;;6.54;52.99
42411;BME280;28056;51.112;0.984;2023-03-01T01:26:55;102236.24;;;6.62;54.17
42411;BME280;28056;51.112;0.984;2023-03-01T01:29:23;102234.86;;;6.88;53.72
42411;BME280;28056;51.112;0.984;2023-03-01T01:31:51;102232.24;;;6.92;54.23
42411;BME280;28056;51.112;0.984;2023-03-01T01:34:20;102226.62;;;6.97;54.32
42411;BME280;28056;51.112;0.984;2023-03-01T01:36:49;102226.78;;;6.76;53.92
42411;BME280;28056;51.112;0.984;2023-03-01T01:39:18;102227.34;;;6.85;54.28
42411;BME280;28056;51.112;0.984;2023-03-01T01:41:45;102225.02;;;7.13;53.64
42411;BME280;28056;51.112;0.984;2023-03-01T01:44:17;102222.50;;;6.93;53.66
42411;BME280;28056;51.112;0.984;2023-03-01T01:46:47;102216.45;;;6.99;53.75
42411;BME280;28056;51.112;0.984;2023-03-01T01:49:22;102213.98;;;7.04;53.41
42411;BME280;28056;51.112;0.984;2023-03-01T01:51:58;102209.91;;;7.02;52.65
42411;BME280;28056;51.112;0.984;2023-03-01T01:54:31;102203.33;;;7.08;52.87
42411;BME280;28056;51.112;0.984;2023-03-01T01:57:08;102199.15;;;7.08;52.89
42411;BME280;28056;51.112;0.984;2023-03-01T01:59:38;102192.33;;;6.89;53.18
42411;BME280;28056;51.112;0.984;2023-03-01T02:02:05;102189.27;;;7.08;52.51
42411;BME280;28056;51.112;0.984;2023-03-01T02:04:33;102191.30;;;7.08;52.85
42411;BME280;28056;51.112;0.984;2023-03-01T02:07:03;102190.26;;;7.00;52.32
42411;BME280;28056;51.112;0.984;2023-03-01T02:09:32;102184.52;;;6.98;52.10
42411;BME280;28056;51.112;0.984;2023-03-01T02:12:02;102181.34;;;6.99;52.83
42411;BME280;28056;51.112;0.984;2023-03-01T02:14:30;102178.33;;;6.90;52.08
42411;BME280;28056;51.112;0.984;2023-03-01T02:16:58;102177.86;;;6.89;52.19
42411;BME280;28056;51.112;0.984;2023-03-01T02:19:37;102178.04;;;6.91;52.62
42411;BME280;28056;51.112;0.984;2023-03-01T02:22:16;102176.11;;;6.93;53.15
42411;BME280;28056;51.112;0.984;2023-03-01T02:24:55;102173.12;;;6.95;53.88
42411;BME280;28056;51.112;0.984;2023-03-01T02:27:29;102169.87;;;6.95;54.21
42411;BME280;28056;51.112;0.984;2023-03-01T02:29:59;102167.41;;;6.91;54.41
42411;BME280;28056;51.112;0.984;2023-03-01T02:32:27;102167.85;;;7.11;54.02
42411;BME280;28056;51.112;0.984;2023-03-01T02:34:56;102164.71;;;6.85;54.21
42411;BME280;28056;51.112;0.984;2023-03-01T02:37:24;102160.42;;;7.05;54.18
42411;BME280;28056;51.112;0.984;2023-03-01T02:41:11;102154.30;;;7.17;54.15
42411;BME280;28056;51.112;0.984;2023-03-01T02:43:40;102152.01;;;6.80;54.61
42411;BME280;28056;51.112;0.984;2023-03-01T02:46:13;102150.13;;;6.81;53.87
42411;BME280;28056;51.112;0.984;2023-03-01T02:48:42;102146.99;;;6.81;54.35
42411;BME280;28056;51.112;0.984;2023-03-01T02:51:21;102146.10;;;6.79;53.93
42411;BME280;28056;51.112;0.984;2023-03-01T02:53:58;102149.50;;;6.78;53.78
42411;BME280;28056;51.112;0.984;2023-03-01T02:56:28;102149.52;;;6.81;54.48
42411;BME280;28056;51.112;0.984;2023-03-01T02:58:56;102145.69;;;6.80;54.01
42411;BME280;28056;51.112;0.984;2023-03-01T03:01:24;102143.35;;;6.77;53.84
42411;BME280;28056;51.112;0.984;2023-03-01T03:03:51;102138.84;;;6.74;53.79
42411;BME280;28056;51.112;0.984;2023-03-01T03:06:19;102137.50;;;6.99;53.94
42411;BME280;28056;51.112;0.984;2023-03-01T03:08:46;102137.84;;;6.98;53.90
42411;BME280;28056;51.112;0.984;2023-03-01T03:11:14;102138.96;;;6.99;54.00
42411;BME280;28056;51.112;0.984;2023-03-01T03:13:40;102139.98;;;6.73;53.55
42411;BME280;28056;51.112;0.984;2023-03-01T03:16:07;102137.66;;;6.72;53.52
42411;BME280;28056;51.112;0.984;2023-03-01T03:18:35;102139.18;;;6.71;53.94
42411;BME280;28056;51.112;0.984;2023-03-01T03:21:03;102135.89;;;7.12;53.59
42411;BME280;28056;51.112;0.984;2023-03-01T03:23:34;102138.88;;;6.86;53.61
42411;BME280;28056;51.112;0.984;2023-03-01T03:26:01;102135.80;;;6.82;53.43
42411;BME280;28056;51.112;0.984;2023-03-01T03:28:29;102134.11;;;6.54;53.52
42411;BME280;28056;51.112;0.984;2023-03-01T03:30:57;102134.07;;;6.52;53.80
42411;BME280;28056;51.112;0.984;2023-03-01T03:33:24;102131.17;;;6.73;53.70
42411;BME280;28056;51.112;0.984;2023-03-01T03:35:51;102131.10;;;6.70;53.37
42411;BME280;28056;51.112;0.984;2023-03-01T03:38:19;102130.02;;;6.41;53.36
42411;BME280;28056;51.112;0.984;2023-03-01T03:40:49;102126.89;;;6.41;53.48
42411;BME280;28056;51.112;0.984;2023-03-01T03:43:19;102122.14;;;6.65;53.43
42411;BME280;28056;51.112;0.984;2023-03-01T03:45:47;102117.77;;;6.44;53.54
42411;BME280;28056;51.112;0.984;2023-03-01T03:48:17;102118.14;;;6.72;53.82
42411;BME280;28056;51.112;0.984;2023-03-01T03:50:48;102117.35;;;6.95;53.67
42411;BME280;28056;51.112;0.984;2023-03-01T03:53:17;102111.68;;;6.77;53.57
42411;BME280;28056;51.112;0.984;2023-03-01T03:55:45;102107.64;;;6.77;53.41
42411;BME280;28056;51.112;0.984;2023-03-01T03:58:13;102102.00;;;6.94;53.22
42411;BME280;28056;51.112;0.984;2023-03-01T04:00:42;102102.36;;;6.72;53.11
42411;BME280;28056;51.112;0.984;2023-03-01T04:03:11;102098.73;;;6.89;53.09
42411;BME280;28056;51.112;0.984;2023-03-01T04:05:40;102093.64;;;6.64;52.79
42411;BME280;28056;51.112;0.984;2023-03-01T04:08:08;102094.73;;;6.61;52.79
42411;BME280;28056;51.112;0.984;2023-03-01T04:10:38;102092.24;;;6.58;52.89
42411;BME280;28056;51.112;0.984;2023-03-01T04:13:08;102092.56;;;6.51;52.40
42411;BME280;28056;51.112;0.984;2023-03-01T04:15:36;102093.66;;;6.45;52.20
42411;BME280;28056;51.112;0.984;2023-03-01T04:18:04;102090.12;;;6.36;52.00
42411;BME280;28056;51.112;0.984;2023-03-01T04:20:33;102085.03;;;6.45;52.38
42411;BME280;28056;51.112;0.984;2023-03-01T04:23:03;102083.26;;;6.34;51.79
42411;BME280;28056;51.112;0.984;2023-03-01T04:25:30;102081.71;;;6.05;52.23
42411;BME280;28056;51.112;0.984;2023-03-01T04:27:58;102078.45;;;6.19;52.08
42411;BME280;28056;51.112;0.984;2023-03-01T04:30:25;102076.40;;;6.14;52.39
42411;BME280;28056;51.112;0.984;2023-03-01T04:32:52;102076.85;;;6.29;52.43
42411;BME280;28056;51.112;0.984;2023-03-01T04:35:19;102073.97;;;6.04;52.38
42411;BME280;28056;51.112;0.984;2023-03-01T04:37:47;102072.03;;;5.97;52.42
42411;BME280;28056;51.112;0.984;2023-03-01T04:40:15;102067.76;;;5.83;54.62
42411;BME280;28056;51.112;0.984;2023-03-01T04:42:58;102066.00;;;5.87;52.74
42411;BME280;28056;51.112;0.984;2023-03-01T04:45:25;102062.70;;;6.01;52.24
42411;BME280;28056;51.112;0.984;2023-03-01T04:47:53;102062.77;;;6.01;53.03
42411;BME280;28056;51.112;0.984;2023-03-01T04:50:21;102058.31;;;5.78;52.64
42411;BME280;28056;51.112;0.984;2023-03-01T04:52:48;102061.73;;;5.81;53.05
42411;BME280;28056;51.112;0.984;2023-03-01T04:55:16;102059.13;;;5.79;52.64
42411;BME280;28056;51.112;0.984;2023-03-01T04:57:44;102058.13;;;5.82;52.94
42411;BME280;28056;51.112;0.984;2023-03-01T05:00:13;102060.31;;;5.82;53.49
42411;BME280;28056;51.112;0.984;2023-03-01T05:02:41;102057.17;;;5.80;52.82
42411;BME280;28056;51.112;0.984;2023-03-01T05:05:08;102053.22;;;5.78;52.89
42411;BME280;28056;51.112;0.984;2023-03-01T05:07:36;102049.40;;;5.98;53.08
42411;BME280;28056;51.112;0.984;2023-03-01T05:10:04;102046.44;;;5.73;53.04
42411;BME280;28056;51.112;0.984;2023-03-01T05:12:32;102046.45;;;5.83;52.44
42411;BME280;28056;51.112;0.984;2023-03-01T05:14:59;102044.31;;;5.80;52.64
42411;BME280;28056;51.112;0.984;2023-03-01T05:17:27;102047.43;;;5.61;53.12
42411;BME280;28056;51.112;0.984;2023-03-01T05:19:54;102046.03;;;5.58;52.77
42411;BME280;28056;51.112;0.984;2023-03-01T05:22:21;102046.50;;;5.77;53.73
42411;BME280;28056;51.112;0.984;2023-03-01T05:24:48;102045.97;;;5.56;53.52
42411;BME280;28056;51.112;0.984;2023-03-01T05:27:16;102047.42;;;5.55;53.47
42411;BME280;28056;51.112;0.984;2023-03-01T05:29:43;102043.96;;;5.52;53.48
42411;BME280;28056;51.112;0.984;2023-03-01T05:32:11;102042.14;;;5.50;52.86
42411;BME280;28056;51.112;0.984;2023-03-01T05:34:38;102040.08;;;5.73;53.54
42411;BME280;28056;51.112;0.984;2023-03-01T05:37:05;102036.29;;;5.76;54.21
42411;BME280;28056;51.112;0.984;2023-03-01T05:39:32;102038.29;;;5.71;53.82
42411;BME280;28056;51.112;0.984;2023-03-01T05:42:00;102034.44;;;5.53;55.09
42411;BME280;28056;51.112;0.984;2023-03-01T05:44:28;102034.09;;;5.76;54.42
42411;BME280;28056;51.112;0.984;2023-03-01T05:46:56;102037.81;;;5.80;53.94
42411;BME280;28056;51.112;0.984;2023-03-01T05:49:23;102039.03;;;5.67;53.89
42411;BME280;28056;51.112;0.984;2023-03-01T05:51:52;102042.19;;;5.64;53.40
42411;BME280;28056;51.112;0.984;2023-03-01T05:54:21;102042.94;;;5.65;54.16
42411;BME280;28056;51.112;0.984;2023-03-01T05:56:48;102048.87;;;5.69;54.12
42411;BME280;28056;51.112;0.984;2023-03-01T05:59:16;102049.45;;;5.70;54.65
42411;BME280;28056;51.112;0.984;2023-03-01T06:01:43;102049.68;;;5.71;55.00
42411;BME280;28056;51.112;0.984;2023-03-01T06:04:10;102049.87;;;5.68;53.79
42411;BME280;28056;51.112;0.984;2023-03-01T06:06:38;102048.73;;;5.80;56.41
42411;BME280;28056;51.112;0.984;2023-03-01T06:09:06;102046.67;;;5.56;54.55
42411;BME280;28056;51.112;0.984;2023-03-01T06:11:34;102046.72;;;5.77;54.49
42411;BME280;28056;51.112;0.984;2023-03-01T06:14:03;102044.47;;;5.92;56.06
42411;BME280;28056;51.112;0.984;2023-03-01T06:16:31;102044.10;;;6.05;57.39
42411;BME280;28056;51.112;0.984;2023-03-01T06:18:58;102045.46;;;6.31;58.18
42411;BME280;28056;51.112;0.984;2023-03-01T06:21:25;102043.47;;;6.15;56.60
42411;BME280;28056;51.112;0.984;2023-03-01T06:23:52;102040.66;;;5.11;52.74
42411;BME280;28056;51.112;0.984;2023-03-01T06:26:20;102041.71;;;4.78;53.87
42411;BME280;28056;51.112;0.984;2023-03-01T06:28:47;102043.25;;;4.88;53.59
42411;BME280;28056;51.112;0.984;2023-03-01T06:31:14;102044.01;;;4.60;54.10
42411;BME280;28056;51.112;0.984;2023-03-01T06:33:41;102045.23;;;4.96;53.42
42411;BME280;28056;51.112;0.984;2023-03-01T06:36:09;102047.21;;;4.71;53.79
42411;BME280;28056;51.112;0.984;2023-03-01T06:38:36;102045.66;;;4.29;52.71
42411;BME280;28056;51.112;0.984;2023-03-01T06:41:04;102047.61;;;4.73;52.74
42411;BME280;28056;51.112;0.984;2023-03-01T06:43:31;102050.21;;;3.92;52.35
42411;BME280;28056;51.112;0.984;2023-03-01T06:45:58;102050.01;;;3.69;52.76
42411;BME280;28056;51.112;0.984;2023-03-01T06:48:26;102045.81;;;4.26;53.15
42411;BME280;28056;51.112;0.984;2023-03-01T06:50:53;102046.47;;;4.84;53.20
42411;BME280;28056;51.112;0.984;2023-03-01T06:53:20;102043.39;;;4.40;52.77
42411;BME280;28056;51.112;0.984;2023-03-01T06:55:47;102042.49;;;3.77;53.35
42411;BME280;28056;51.112;0.984;2023-03-01T06:58:20;102032.70;;;4.22;53.08
42411;BME280;28056;51.112;0.984;2023-03-01T07:00:48;102025.98;;;4.93;53.25
42411;BME280;28056;51.112;0.984;2023-03-01T07:03:16;102024.29;;;4.56;53.13
42411;BME280;28056;51.112;0.984;2023-03-01T07:05:43;102023.85;;;4.72;52.72
42411;BME280;28056;51.112;0.984;2023-03-01T07:08:11;102022.44;;;4.72;53.04
42411;BME280;28056;51.112;0.984;2023-03-01T07:10:38;102021.46;;;4.57;51.82
42411;BME280;28056;51.112;0.984;2023-03-01T07:13:05;102026.69;;;5.05;53.55
42411;BME280;28056;51.112;0.984;2023-03-01T07:15:33;102025.91;;;4.74;51.81
42411;BME280;28056;51.112;0.984;2023-03-01T07:18:00;102025.74;;;3.45;53.78
42411;BME280;28056;51.112;0.984;2023-03-01T07:20:28;102022.02;;;4.62;52.65
42411;BME280;28056;51.112;0.984;2023-03-01T07:22:56;102025.89;;;4.66;52.36
42411;BME280;28056;51.112;0.984;2023-03-01T07:25:23;102030.29;;;4.92;52.83
42411;BME280;28056;51.112;0.984;2023-03-01T07:27:51;102030.18;;;4.66;53.05
42411;BME280;28056;51.112;0.984;2023-03-01T07:30:19;102033.92;;;4.65;52.63
42411;BME280;28056;51.112;0.984;2023-03-01T07:32:46;102038.89;;;4.92;52.55
42411;BME280;28056;51.112;0.984;2023-03-01T07:35:14;102035.63;;;5.00;52.95
42411;BME280;28056;51.112;0.984;2023-03-01T07:37:42;102041.43;;;4.85;53.36
42411;BME280;28056;51.112;0.984;2023-03-01T07:40:11;102040.25;;;5.12;53.08
42411;BME280;28056;51.112;0.984;2023-03-01T07:42:38;102045.15;;;4.69;53.58
42411;BME280;28056;51.112;0.984;2023-03-01T07:45:06;102045.07;;;5.09;53.92
42411;BME280;28056;51.112;0.984;2023-03-01T07:47:34;102038.63;;;4.07;54.19
42411;BME280;28056;51.112;0.984;2023-03-01T07:50:02;102041.37;;;3.64;55.11
42411;BME280;28056;51.112;0.984;2023-03-01T07:52:29;102041.07;;;4.95;54.37
42411;BME280;28056;51.112;0.984;2023-03-01T07:54:56;102038.29;;;5.20;53.24
42411;BME280;28056;51.112;0.984;2023-03-01T07:57:24;102038.98;;;5.30;53.99
42411;BME280;28056;51.112;0.984;2023-03-01T07:59:51;102034.05;;;5.10;52.58
42411;BME280;28056;51.112;0.984;2023-03-01T08:02:19;102030.52;;;5.03;52.69
42411;BME280;28056;51.112;0.984;2023-03-01T08:04:46;102029.54;;;5.44;52.44
42411;BME280;28056;51.112;0.984;2023-03-01T08:07:13;102029.79;;;5.50;52.82
42411;BME280;28056;51.112;0.984;2023-03-01T08:09:41;102030.52;;;5.45;52.41
42411;BME280;28056;51.112;0.984;2023-03-01T08:12:08;102028.24;;;5.83;52.98
42411;BME280;28056;51.112;0.984;2023-03-01T08:14:36;102033.89;;;5.80;52.51
42411;BME280;28056;51.112;0.984;2023-03-01T08:17:04;102035.19;;;6.57;52.37
42411;BME280;28056;51.112;0.984;2023-03-01T08:19:32;102039.79;;;5.89;52.01
42411;BME280;28056;51.112;0.984;2023-03-01T08:21:59;102041.56;;;6.37;52.62
42411;BME280;28056;51.112;0.984;2023-03-01T08:24:27;102045.54;;;6.30;52.80
42411;BME280;28056;51.112;0.984;2023-03-01T08:26:55;102040.37;;;6.56;52.93
42411;BME280;28056;51.112;0.984;2023-03-01T08:29:22;102038.09;;;6.56;53.01
42411;BME280;28056;51.112;0.984;2023-03-01T08:31:50;102039.51;;;6.28;53.07
42411;BME280;28056;51.112;0.984;2023-03-01T08:34:18;102039.36;;;6.31;52.43
42411;BME280;28056;51.112;0.984;2023-03-01T08:36:46;102034.47;;;6.24;52.01
42411;BME280;28056;51.112;0.984;2023-03-01T08:39:15;102031.33;;;5.78;51.92
42411;BME280;28056;51.112;0.984;2023-03-01T08:41:43;102027.15;;;5.55;52.64
42411;BME280;28056;51.112;0.984;2023-03-01T08:44:12;102027.60;;;6.46;52.42
42411;BME280;28056;51.112;0.984;2023-03-01T08:46:41;102028.98;;;6.39;52.19
42411;BME280;28056;51.112;0.984;2023-03-01T08:49:11;102024.51;;;6.50;51.88
42411;BME280;28056;51.112;0.984;2023-03-01T08:51:39;102022.69;;;6.02;52.40
42411;BME280;28056;51.112;0.984;2023-03-01T08:54:10;102017.97;;;6.29;52.04
42411;BME280;28056;51.112;0.984;2023-03-01T08:56:37;102010.01;;;6.17;53.33
42411;BME280;28056;51.112;0.984;2023-03-01T08:59:05;102012.14;;;6.15;52.44
42411;BME280;28056;51.112;0.984;2023-03-01T09:01:32;102011.19;;;5.94;52.18
42411;BME280;28056;51.112;0.984;2023-03-01T09:04:00;102007.55;;;6.05;51.89
42411;BME280;28056;51.112;0.984;2023-03-01T09:06:30;102002.07;;;6.76;51.63
42411;BME280;28056;51.112;0.984;2023-03-01T09:08:57;101998.56;;;6.71;50.67
42411;BME280;28056;51.112;0.984;2023-03-01T09:11:27;102002.21;;;6.12;50.67
42411;BME280;28056;51.112;0.984;2023-03-01T09:13:55;101997.99;;;6.58;50.81
42411;BME280;28056;51.112;0.984;2023-03-01T09:16:23;101991.96;;;6.71;50.85
42411;BME280;28056;51.112;0.984;2023-03-01T09:18:52;101989.70;;;6.83;50.97
42411;BME280;28056;51.112;0.984;2023-03-01T09:21:22;101988.04;;;6.78;50.46
42411;BME280;28056;51.112;0.984;2023-03-01T09:23:50;101986.51;;;6.25;51.74
42411;BME280;28056;51.112;0.984;2023-03-01T09:26:19;101988.78;;;7.00;52.13
42411;BME280;28056;51.112;0.984;2023-03-01T09:28:48;101984.80;;;6.82;52.52
42411;BME280;28056;51.112;0.984;2023-03-01T09:31:17;101984.93;;;6.50;52.36
42411;BME280;28056;51.112;0.984;2023-03-01T09:33:46;101988.12;;;6.23;52.48
42411;BME280;28056;51.112;0.984;2023-03-01T09:36:16;101988.38;;;6.64;53.55
42411;BME280;28056;51.112;0.984;2023-03-01T09:38:44;101985.52;;;6.37;53.16
42411;BME280;28056;51.112;0.984;2023-03-01T09:41:29;101978.18;;;6.35;54.24
42411;BME280;28056;51.112;0.984;2023-03-01T09:44:07;101977.94;;;6.50;53.90
42411;BME280;28056;51.112;0.984;2023-03-01T09:46:42;101974.78;;;7.15;53.63
42411;BME280;28056;51.112;0.984;2023-03-01T09:49:14;101968.49;;;6.75;53.86
42411;BME280;28056;51.112;0.984;2023-03-01T09:51:44;101966.03;;;6.18;55.22
42411;BME280;28056;51.112;0.984;2023-03-01T09:54:15;101964.75;;;6.84;54.64
42411;BME280;28056;51.112;0.984;2023-03-01T09:56:59;101961.89;;;7.36;54.58
42411;BME280;28056;51.112;0.984;2023-03-01T09:59:31;101965.49;;;7.07;54.03
42411;BME280;28056;51.112;0.984;2023-03-01T10:02:17;101968.92;;;7.52;54.95
42411;BME280;28056;51.112;0.984;2023-03-01T10:04:50;101969.29;;;7.36;53.33
42411;BME280;28056;51.112;0.984;2023-03-01T10:07:26;101968.23;;;7.17;54.69
42411;BME280;28056;51.112;0.984;2023-03-01T10:09:54;101968.66;;;7.63;54.19
42411;BME280;28056;51.112;0.984;2023-03-01T10:12:25;101969.12;;;7.21;53.25
42411;BME280;28056;51.112;0.984;2023-03-01T10:14:58;101965.60;;;6.43;53.94
42411;BME280;28056;51.112;0.984;2023-03-01T10:17:32;101964.81;;;6.67;54.72
42411;BME280;28056;51.112;0.984;2023-03-01T10:20:18;101961.88;;;6.19;55.86
42411;BME280;28056;51.112;0.984;2023-03-01T10:22:47;101955.14;;;6.03;56.37
42411;BME280;28056;51.112;0.984;2023-03-01T10:25:21;101948.24;;;5.83;57.92
42411;BME280;28056;51.112;0.984;2023-03-01T10:27:53;101946.84;;;6.44;57.41
42411;BME280;28056;51.112;0.984;2023-03-01T10:30:28;101939.51;;;7.26;55.84
42411;BME280;28056;51.112;0.984;2023-03-01T10:32:58;101939.05;;;7.78;55.87
42411;BME280;28056;51.112;0.984;2023-03-01T10:35:29;101929.65;;;7.79;56.81
42411;BME280;28056;51.112;0.984;2023-03-01T10:37:58;101930.51;;;7.69;55.55
42411;BME280;28056;51.112;0.984;2023-03-01T10:40:29;101925.61;;;8.13;55.14
42411;BME280;28056;51.112;0.984;2023-03-01T10:42:58;101923.73;;;8.83;52.79
42411;BME280;28056;51.112;0.984;2023-03-01T10:45:32;101917.95;;;8.58;52.47
42411;BME280;28056;51.112;0.984;2023-03-01T10:48:11;101916.02;;;8.71;52.47
42411;BME280;28056;51.112;0.984;2023-03-01T10:50:40;101908.53;;;7.69;52.60
42411;BME280;28056;51.112;0.984;2023-03-01T10:53:22;101914.19;;;7.16;53.30
42411;BME280;28056;51.112;0.984;2023-03-01T10:55:57;101908.93;;;8.21;53.57
42411;BME280;28056;51.112;0.984;2023-03-01T10:58:25;101905.85;;;7.98;53.40
42411;BME280;28056;51.112;0.984;2023-03-01T11:00:54;101905.49;;;6.79;55.70
42411;BME280;28056;51.112;0.984;2023-03-01T11:03:24;101904.10;;;7.59;54.91
42411;BME280;28056;51.112;0.984;2023-03-01T11:05:56;101901.03;;;6.93;56.09
42411;BME280;28056;51.112;0.984;2023-03-01T11:08:35;101893.84;;;7.92;54.55
42411;BME280;28056;51.112;0.984;2023-03-01T11:11:09;101897.45;;;7.85;54.87
42411;BME280;28056;51.112;0.984;2023-03-01T11:13:53;101895.52;;;8.25;55.05
42411;BME280;28056;51.112;0.984;2023-03-01T11:16:27;101892.73;;;8.11;55.33
42411;BME280;28056;51.112;0.984;2023-03-01T11:18:58;101892.92;;;7.76;55.58
42411;BME280;28056;51.112;0.984;2023-03-01T11:21:28;101892.33;;;7.69;55.87
42411;BME280;28056;51.112;0.984;2023-03-01T11:24:01;101884.25;;;6.48;57.65
42411;BME280;28056;51.112;0.984;2023-03-01T11:26:31;101880.06;;;7.36;56.93
42411;BME280;28056;51.112;0.984;2023-03-01T11:29:05;101877.13;;;6.61;57.14
42411;BME280;28056;51.112;0.984;2023-03-01T11:31:37;101879.23;;;6.36;58.74
42411;BME280;28056;51.112;0.984;2023-03-01T11:34:11;101872.07;;;6.75;57.61
42411;BME280;28056;51.112;0.984;2023-03-01T11:36:42;101868.66;;;6.53;58.62
42411;BME280;28056;51.112;0.984;2023-03-01T11:39:20;101868.49;;;6.72;58.87
42411;BME280;28056;51.112;0.984;2023-03-01T11:41:59;101863.86;;;7.40;57.82
42411;BME280;28056;51.112;0.984;2023-03-01T11:44:29;101859.94;;;5.67;60.72
42411;BME280;28056;51.112;0.984;2023-03-01T11:47:16;101857.65;;;6.84;57.83
42411;BME280;28056;51.112;0.984;2023-03-01T11:49:57;101853.95;;;5.65;59.71
42411;BME280;28056;51.112;0.984;2023-03-01T11:52:35;101855.42;;;7.02;57.78
42411;BME280;28056;51.112;0.984;2023-03-01T11:55:17;101850.17;;;7.51;57.28
42411;BME280;28056;51.112;0.984;2023-03-01T11:58:07;101850.99;;;7.60;57.24
42411;BME280;28056;51.112;0.984;2023-03-01T12:00:53;101845.20;;;7.13;56.90
42411;BME280;28056;51.112;0.984;2023-03-01T12:03:30;101845.65;;;6.67;57.17
42411;BME280;28056;51.112;0.984;2023-03-01T12:06:27;101840.37;;;6.85;56.89
42411;BME280;28056;51.112;0.984;2023-03-01T12:09:06;101838.83;;;6.92;57.58
42411;BME280;28056;51.112;0.984;2023-03-01T12:11:51;101828.15;;;7.22;57.14
42411;BME280;28056;51.112;0.984;2023-03-01T12:14:36;101824.19;;;6.18;59.24
42411;BME280;28056;51.112;0.984;2023-03-01T12:17:20;101821.33;;;6.40;58.14
42411;BME280;28056;51.112;0.984;2023-03-01T12:20:03;101822.19;;;6.53;59.01
42411;BME280;28056;51.112;0.984;2023-03-01T12:22:39;101815.60;;;5.75;59.21
42411;BME280;28056;51.112;0.984;2023-03-01T12:25:18;101817.36;;;6.15;59.38
42411;BME280;28056;51.112;0.984;2023-03-01T12:28:02;101815.64;;;5.92;60.19
42411;BME280;28056;51.112;0.984;2023-03-01T12:30:42;101809.82;;;5.62;60.91
42411;BME280;28056;51.112;0.984;2023-03-01T12:33:22;101806.68;;;6.20;59.88
42411;BME280;28056;51.112;0.984;2023-03-01T12:36:41;101804.20;;;5.89;60.20
42411;BME280;28056;51.112;0.984;2023-03-01T12:39:26;101805.17;;;6.27;59.53
42411;BME280;28056;51.112;0.984;2023-03-01T12:42:04;101799.35;;;5.65;60.93
42411;BME280;28056;51.112;0.984;2023-03-01T12:44:49;101795.71;;;5.47;61.51
42411;BME280;28056;51.112;0.984;2023-03-01T12:47:31;101795.21;;;5.80;61.64
42411;BME280;28056;51.112;0.984;2023-03-01T12:50:04;101792.82;;;6.12;61.07
42411;BME280;28056;51.112;0.984;2023-03-01T12:52:42;101788.84;;;6.04;60.81
42411;BME280;28056;51.112;0.984;2023-03-01T12:55:24;101778.42;;;5.75;61.12
42411;BME280;28056;51.112;0.984;2023-03-01T12:58:00;101781.96;;;5.74;61.65
42411;BME280;28056;51.112;0.984;2023-03-01T13:00:35;101777.45;;;5.99;62.06
42411;BME280;28056;51.112;0.984;2023-03-01T13:03:14;101780.57;;;5.10;62.77
42411;BME280;28056;51.112;0.984;2023-03-01T13:06:00;101777.13;;;6.07;60.82
42411;BME280;28056;51.112;0.984;2023-03-01T13:08:38;101777.00;;;6.88;59.21
42411;BME280;28056;51.112;0.984;2023-03-01T13:11:15;101769.06;;;6.50;60.71
42411;BME280;28056;51.112;0.984;2023-03-01T13:13:44;101767.47;;;6.26;59.54
42411;BME280;28056;51.112;0.984;2023-03-01T13:16:38;101762.52;;;6.35;60.19
42411;BME280;28056;51.112;0.984;2023-03-01T13:19:10;101757.32;;;5.94;60.22
42411;BME280;28056;51.112;0.984;2023-03-01T13:21:40;101757.60;;;5.38;61.40
42411;BME280;28056;51.112;0.984;2023-03-01T13:24:24;101753.02;;;5.52;62.13